createdAt,value
2022-11-14T00:00:41.748Z,44.40
2022-11-14T00:03:26.601Z,45.00
2022-11-14T00:06:11.765Z,45.63
2022-11-14T00:08:56.875Z,43.43
2022-11-14T00:11:41.682Z,44.57
2022-11-14T00:14:26.492Z,42.27
2022-11-14T00:17:11.510Z,43.23
2022-11-14T00:19:56.224Z,40.30
2022-11-14T00:22:41.134Z,44.57
2022-11-14T00:25:25.966Z,42.23
2022-11-14T00:28:10.975Z,45.73
2022-11-14T00:30:56.160Z,44.97
2022-11-14T00:33:41.347Z,47.53
2022-11-14T00:36:26.128Z,40.53
2022-11-14T00:39:14.602Z,45.03
2022-11-14T00:41:59.731Z,46.63
2022-11-14T00:44:44.652Z,45.90
2022-11-14T00:47:29.346Z,44.60
2022-11-14T00:50:15.413Z,41.03
2022-11-14T00:53:00.393Z,46.80
2022-11-14T00:55:45.313Z,44.30
2022-11-14T00:58:30.645Z,45.70
2022-11-14T01:01:15.801Z,45.80
2022-11-14T01:04:01.312Z,48.00
2022-11-14T01:06:46.455Z,44.63
2022-11-14T01:09:31.441Z,43.97
2022-11-14T01:12:16.481Z,48.33
2022-11-14T01:15:01.769Z,48.17
2022-11-14T01:17:46.734Z,44.73
2022-11-14T01:20:31.740Z,44.97
2022-11-14T01:23:16.922Z,43.50
2022-11-14T01:26:05.995Z,42.20
2022-11-14T01:28:51.016Z,47.07
2022-11-14T01:31:35.815Z,40.77
2022-11-14T01:34:20.655Z,43.43
2022-11-14T01:37:05.538Z,43.10
2022-11-14T01:39:50.333Z,47.07
2022-11-14T01:42:35.297Z,44.47
2022-11-14T01:45:38.927Z,40.43
2022-11-14T01:48:30.482Z,41.93
2022-11-14T01:51:21.671Z,42.23
2022-11-14T01:54:08.651Z,43.23
2022-11-14T01:56:56.726Z,42.23
2022-11-14T01:59:44.507Z,43.67
2022-11-14T02:02:29.481Z,44.87
2022-11-14T02:05:15.847Z,45.30
2022-11-14T02:08:01.086Z,43.37
2022-11-14T02:10:45.991Z,39.50
2022-11-14T02:13:31.104Z,41.83
2022-11-14T02:16:16.368Z,41.27
2022-11-14T02:19:01.700Z,42.87
2022-11-14T02:21:46.649Z,48.70
2022-11-14T02:24:31.659Z,47.20
2022-11-14T02:27:16.669Z,44.83
2022-11-14T02:30:09.909Z,46.83
2022-11-14T02:33:10.388Z,46.07
2022-11-14T02:35:56.241Z,46.17
2022-11-14T02:38:41.069Z,49.47
2022-11-14T02:41:26.043Z,50.17
2022-11-14T02:44:10.776Z,52.20
2022-11-14T02:46:55.737Z,54.70
2022-11-14T02:49:40.712Z,51.43
2022-11-14T02:52:25.595Z,49.90
2022-11-14T02:55:11.023Z,55.67
2022-11-14T02:57:55.802Z,51.60
2022-11-14T03:00:59.498Z,58.80
2022-11-14T03:03:46.255Z,53.80
2022-11-14T03:06:31.112Z,55.67
2022-11-14T03:09:15.913Z,56.73
2022-11-14T03:12:00.740Z,59.80
2022-11-14T03:14:45.505Z,58.30
2022-11-14T03:17:34.114Z,60.90
2022-11-14T03:20:19.321Z,64.17
2022-11-14T03:23:04.480Z,62.10
2022-11-14T03:25:49.444Z,62.87
2022-11-14T03:28:34.603Z,55.97
2022-11-14T03:31:19.706Z,63.00
2022-11-14T03:34:04.667Z,61.43
2022-11-14T03:36:49.901Z,60.17
2022-11-14T03:39:34.694Z,62.87
2022-11-14T03:42:19.728Z,63.43
2022-11-14T03:45:05.120Z,60.30
2022-11-14T03:47:50.148Z,62.93
2022-11-14T03:50:34.998Z,59.93
2022-11-14T03:53:19.923Z,62.83
2022-11-14T03:56:05.114Z,58.77
2022-11-14T03:58:49.980Z,56.67
2022-11-14T04:01:34.919Z,60.63
2022-11-14T04:04:19.683Z,67.77
2022-11-14T04:07:04.863Z,58.87
2022-11-14T04:09:50.204Z,59.87
2022-11-14T04:12:35.516Z,60.97
2022-11-14T04:15:20.821Z,60.20
2022-11-14T04:18:06.170Z,60.07
2022-11-14T04:20:51.458Z,65.23
2022-11-14T04:23:36.531Z,65.77
2022-11-14T04:26:21.484Z,65.03
2022-11-14T04:29:06.597Z,59.03
2022-11-14T04:31:51.775Z,57.13
2022-11-14T04:34:36.569Z,54.53
2022-11-14T04:37:21.512Z,52.43
2022-11-14T04:40:07.336Z,54.63
2022-11-14T04:42:52.109Z,51.80
2022-11-14T04:45:37.046Z,56.43
2022-11-14T04:48:22.288Z,51.83
2022-11-14T04:51:07.302Z,52.77
2022-11-14T04:53:52.438Z,50.50
2022-11-14T04:56:37.172Z,54.73
2022-11-14T04:59:21.955Z,51.10
2022-11-14T05:02:06.874Z,48.23
2022-11-14T05:04:52.115Z,54.60
2022-11-14T05:07:36.919Z,49.10
2022-11-14T05:10:21.924Z,51.43
2022-11-14T05:13:07.035Z,50.33
2022-11-14T05:15:51.907Z,50.40
2022-11-14T05:18:37.255Z,51.77
2022-11-14T05:21:22.145Z,44.70
2022-11-14T05:24:06.992Z,47.43
2022-11-14T05:26:51.768Z,53.13
2022-11-14T05:29:36.689Z,47.37
2022-11-14T05:32:22.055Z,48.80
2022-11-14T05:35:07.146Z,51.10
2022-11-14T05:37:56.075Z,55.63
2022-11-14T05:40:44.066Z,49.00
2022-11-14T05:43:29.168Z,44.53
2022-11-14T05:46:15.109Z,46.97
2022-11-14T05:49:00.052Z,49.30
2022-11-14T05:51:45.190Z,50.70
2022-11-14T05:54:30.113Z,46.87
2022-11-14T05:57:15.070Z,45.67
2022-11-14T05:59:59.901Z,46.90
2022-11-14T06:02:46.169Z,47.23
2022-11-14T06:05:31.473Z,44.33
2022-11-14T06:08:16.506Z,40.83
2022-11-14T06:11:02.034Z,46.20
2022-11-14T06:13:47.408Z,40.80
2022-11-14T06:16:32.510Z,44.13
2022-11-14T06:19:17.501Z,42.27
2022-11-14T06:22:02.651Z,43.10
2022-11-14T06:24:47.588Z,46.40
2022-11-14T06:27:32.596Z,46.00
2022-11-14T06:30:18.066Z,43.20
2022-11-14T06:33:03.019Z,44.47
2022-11-14T06:35:47.910Z,48.67
2022-11-14T06:38:33.202Z,50.23
2022-11-14T06:41:19.976Z,48.60
2022-11-14T06:44:07.405Z,53.67
2022-11-14T06:46:52.167Z,48.20
2022-11-14T06:49:40.532Z,52.33
2022-11-14T06:52:26.665Z,52.50
2022-11-14T06:55:11.830Z,50.23
2022-11-14T06:57:56.974Z,52.03
2022-11-14T07:00:41.820Z,48.90
2022-11-14T07:03:26.841Z,46.17
2022-11-14T07:06:14.207Z,47.67
2022-11-14T07:08:59.996Z,42.43
2022-11-14T07:11:46.853Z,39.17
2022-11-14T07:14:31.794Z,36.40
2022-11-14T07:17:16.534Z,37.60
2022-11-14T07:20:01.594Z,36.20
2022-11-14T07:22:47.144Z,33.07
2022-11-14T07:25:32.097Z,36.72
2022-11-14T07:28:16.884Z,33.17
2022-11-14T07:31:05.597Z,36.43
2022-11-14T07:33:50.608Z,34.07
2022-11-14T07:36:35.640Z,33.23
2022-11-14T07:39:20.459Z,30.93
2022-11-14T07:42:05.526Z,31.30
2022-11-14T07:44:50.349Z,30.40
2022-11-14T07:47:35.343Z,33.63
2022-11-14T07:50:20.632Z,29.03
2022-11-14T07:53:06.333Z,32.87
2022-11-14T07:55:51.241Z,33.30
2022-11-14T07:58:36.532Z,30.30
2022-11-14T08:01:21.401Z,36.17
2022-11-14T08:04:06.663Z,32.80
2022-11-14T08:06:51.682Z,33.07
2022-11-14T08:09:36.864Z,35.10
2022-11-14T08:12:22.143Z,32.60
2022-11-14T08:15:07.961Z,34.47
2022-11-14T08:17:53.114Z,32.47
2022-11-14T08:20:38.247Z,32.43
2022-11-14T08:23:23.224Z,31.70
2022-11-14T08:26:08.115Z,31.30
2022-11-14T08:28:54.219Z,34.87
2022-11-14T08:31:39.197Z,33.63
2022-11-14T08:34:25.216Z,32.90
2022-11-14T08:37:10.472Z,31.43
2022-11-14T08:39:55.558Z,34.70
2022-11-14T08:42:40.478Z,35.10
2022-11-14T08:45:25.368Z,35.37
2022-11-14T08:48:11.372Z,35.47
2022-11-14T08:50:56.591Z,38.30
2022-11-14T08:53:41.354Z,36.70
2022-11-14T08:56:26.211Z,35.37
2022-11-14T08:59:11.070Z,36.40
2022-11-14T09:01:55.964Z,37.77
2022-11-14T09:04:40.967Z,38.90
2022-11-14T09:07:26.302Z,34.60
2022-11-14T09:10:11.695Z,36.77
2022-11-14T09:12:56.949Z,35.00
2022-11-14T09:15:42.525Z,34.20
2022-11-14T09:18:27.857Z,34.03
2022-11-14T09:21:13.072Z,35.50
2022-11-14T09:24:01.671Z,32.50
2022-11-14T09:26:47.641Z,33.27
2022-11-14T09:29:35.276Z,33.03
2022-11-14T09:32:20.305Z,30.63
2022-11-14T09:35:05.326Z,32.20
2022-11-14T09:37:50.498Z,31.73
2022-11-14T09:40:55.609Z,36.60
2022-11-14T09:43:43.538Z,31.63
2022-11-14T09:46:39.212Z,31.87
2022-11-14T09:49:30.808Z,27.03
2022-11-14T09:52:15.553Z,32.87
2022-11-14T09:55:09.572Z,29.93
2022-11-14T09:57:54.867Z,28.77
2022-11-14T10:00:46.811Z,30.13
2022-11-14T10:03:49.399Z,29.33
2022-11-14T10:07:00.876Z,29.80
2022-11-14T10:10:06.721Z,25.73
2022-11-14T10:13:08.723Z,25.93
2022-11-14T10:15:59.761Z,24.93
2022-11-14T10:18:44.777Z,28.20
2022-11-14T10:21:36.440Z,26.17
2022-11-14T10:24:21.673Z,25.00
2022-11-14T10:27:10.741Z,28.87
2022-11-14T10:30:03.276Z,30.20
2022-11-14T10:32:56.248Z,24.20
2022-11-14T10:35:43.696Z,28.93
2022-11-14T10:38:35.313Z,22.07
2022-11-14T10:41:49.878Z,27.97
2022-11-14T10:44:29.814Z,23.53
2022-11-14T10:47:16.752Z,24.00
2022-11-14T10:50:05.121Z,22.77
2022-11-14T10:52:52.913Z,23.30
2022-11-14T10:55:57.794Z,21.97
2022-11-14T10:58:49.135Z,22.77
2022-11-14T11:01:37.745Z,20.87
2022-11-14T11:04:30.559Z,24.07
2022-11-14T11:07:37.633Z,22.27
2022-11-14T11:10:41.979Z,22.80
2022-11-14T11:13:31.780Z,24.47
2022-11-14T11:16:19.590Z,21.87
2022-11-14T11:19:14.279Z,23.47
2022-11-14T11:21:59.195Z,20.70
2022-11-14T11:24:43.964Z,22.87
2022-11-14T11:27:29.734Z,25.63
2022-11-14T11:30:23.363Z,26.83
2022-11-14T11:33:15.275Z,20.80
2022-11-14T11:36:10.990Z,21.83
2022-11-14T11:38:56.005Z,20.50
2022-11-14T11:44:47.864Z,18.80
2022-11-14T11:47:34.234Z,19.03
2022-11-14T11:50:20.986Z,18.93
2022-11-14T11:53:12.669Z,22.40
2022-11-14T11:56:18.311Z,20.67
2022-11-14T11:59:22.086Z,22.10
2022-11-14T12:02:24.023Z,20.00
2022-11-14T12:05:12.804Z,19.47
2022-11-14T12:08:00.972Z,19.00
2022-11-14T12:10:46.026Z,18.50
2022-11-14T12:13:42.884Z,20.73
2022-11-14T12:16:34.177Z,17.50
2022-11-14T12:19:31.307Z,19.37
2022-11-14T12:22:25.327Z,16.47
2022-11-14T12:25:22.423Z,18.52
2022-11-14T12:28:15.689Z,17.80
2022-11-14T12:31:02.574Z,19.00
2022-11-14T12:33:52.889Z,17.07
2022-11-14T12:36:39.751Z,15.70
2022-11-14T12:39:25.950Z,17.07
2022-11-14T12:42:14.518Z,17.53
2022-11-14T12:44:59.545Z,14.90
2022-11-14T12:48:04.582Z,15.33
2022-11-14T12:50:49.873Z,14.60
2022-11-14T12:53:39.408Z,13.97
2022-11-14T12:56:24.277Z,17.07
2022-11-14T12:59:27.744Z,14.10
2022-11-14T13:02:39.074Z,13.37
2022-11-14T13:05:36.266Z,14.93
2022-11-14T13:08:39.913Z,13.37
2022-11-14T13:12:00.364Z,13.53
2022-11-14T13:15:11.461Z,17.00
2022-11-14T13:18:41.591Z,14.17
2022-11-14T13:21:46.322Z,15.37
2022-11-14T13:24:51.536Z,13.80
2022-11-14T13:28:06.041Z,13.90
2022-11-14T13:31:00.678Z,14.83
2022-11-14T13:33:47.327Z,13.90
2022-11-14T13:36:41.268Z,13.27
2022-11-14T13:39:30.123Z,13.40
2022-11-14T13:42:18.577Z,14.07
2022-11-14T13:45:16.404Z,15.73
2022-11-14T13:48:20.076Z,13.87
2022-11-14T13:51:36.231Z,14.60
2022-11-14T13:54:18.185Z,13.47
2022-11-14T13:57:03.392Z,14.17
2022-11-14T13:59:57.546Z,14.83
2022-11-14T14:02:42.524Z,20.83
2022-11-14T14:05:27.626Z,16.57
2022-11-14T14:08:35.777Z,14.33
2022-11-14T14:11:32.540Z,48.03
2022-11-14T14:14:17.516Z,25.97
2022-11-14T14:17:15.349Z,19.20
2022-11-14T14:20:19.256Z,18.20
2022-11-14T14:23:04.050Z,13.87
2022-11-14T14:26:12.194Z,18.33
2022-11-14T14:28:57.453Z,14.47
2022-11-14T14:31:42.767Z,15.83
2022-11-14T14:34:29.629Z,14.27
2022-11-14T14:37:16.586Z,15.07
2022-11-14T14:40:06.061Z,15.03
2022-11-14T14:42:51.200Z,15.30
2022-11-14T14:45:51.971Z,20.27
2022-11-14T14:48:40.267Z,16.20
2022-11-14T14:51:38.020Z,15.07
2022-11-14T14:54:24.613Z,13.97
2022-11-14T14:57:16.872Z,16.13
2022-11-14T15:00:02.876Z,15.93
2022-11-14T15:02:49.080Z,19.53
2022-11-14T15:05:33.846Z,23.50
2022-11-14T15:08:19.186Z,33.37
2022-11-14T15:11:04.417Z,24.50
2022-11-14T15:13:52.803Z,23.13
2022-11-14T15:16:38.051Z,25.30
2022-11-14T15:19:24.388Z,24.50
2022-11-14T15:22:10.847Z,23.23
2022-11-14T15:25:14.308Z,22.73
2022-11-14T15:28:00.339Z,20.23
2022-11-14T15:31:05.849Z,20.93
2022-11-14T15:34:20.848Z,19.70
2022-11-14T15:37:16.177Z,24.37
2022-11-14T15:40:15.757Z,21.53
2022-11-14T15:43:01.481Z,18.67
2022-11-14T15:45:46.614Z,18.70
2022-11-14T15:48:32.046Z,28.97
2022-11-14T15:51:17.117Z,20.37
2022-11-14T15:54:02.113Z,19.80
2022-11-14T15:56:47.072Z,21.13
2022-11-14T15:59:32.277Z,23.93
2022-11-14T16:02:19.212Z,23.57
2022-11-14T16:05:05.095Z,22.60
2022-11-14T16:07:50.355Z,23.03
2022-11-14T16:10:35.279Z,21.23
2022-11-14T16:13:20.264Z,23.00
2022-11-14T16:16:05.470Z,21.77
2022-11-14T16:18:50.719Z,21.53
2022-11-14T16:21:37.185Z,20.93
2022-11-14T16:24:23.141Z,21.97
2022-11-14T16:27:08.334Z,18.23
2022-11-14T16:29:53.533Z,18.97
2022-11-14T16:32:38.478Z,22.87
2022-11-14T16:35:24.661Z,21.67
2022-11-14T16:38:12.380Z,18.83
2022-11-14T16:40:57.629Z,18.90
2022-11-14T16:43:42.449Z,19.73
2022-11-14T16:46:27.303Z,21.67
2022-11-14T16:49:16.999Z,25.13
2022-11-14T16:52:08.561Z,22.20
2022-11-14T16:54:53.861Z,25.57
2022-11-14T16:57:38.985Z,22.10
2022-11-14T17:00:24.540Z,25.20
2022-11-14T17:03:09.719Z,39.40
2022-11-14T17:05:55.015Z,27.17
2022-11-14T17:08:39.800Z,23.43
2022-11-14T17:11:25.022Z,22.83
2022-11-14T17:14:09.934Z,21.03
2022-11-14T17:16:54.940Z,21.67
2022-11-14T17:19:45.829Z,20.87
2022-11-14T17:22:30.883Z,21.13
2022-11-14T17:25:16.335Z,24.53
2022-11-14T17:28:01.505Z,18.40
2022-11-14T17:30:46.658Z,16.00
2022-11-14T17:33:32.043Z,15.67
2022-11-14T17:36:18.152Z,15.37
2022-11-14T17:39:03.479Z,15.87
2022-11-14T17:41:48.801Z,15.03
2022-11-14T17:44:33.839Z,18.00
2022-11-14T17:47:19.243Z,17.27
2022-11-14T17:50:04.941Z,16.03
2022-11-14T17:52:51.368Z,16.67
2022-11-14T17:55:36.291Z,21.33
2022-11-14T17:58:21.780Z,16.37
2022-11-14T18:01:10.990Z,17.53
2022-11-14T18:03:57.615Z,15.47
2022-11-14T18:06:45.852Z,17.23
2022-11-14T18:09:30.923Z,18.27
2022-11-14T18:12:15.822Z,17.93
2022-11-14T18:15:01.335Z,19.87
2022-11-14T18:17:46.781Z,18.17
2022-11-14T18:20:32.057Z,23.57
2022-11-14T18:23:17.454Z,20.47
2022-11-14T18:26:08.565Z,19.50
2022-11-14T18:29:01.833Z,20.73
2022-11-14T18:31:48.239Z,20.47
2022-11-14T18:34:33.628Z,18.73
2022-11-14T18:37:18.895Z,20.13
2022-11-14T18:40:04.346Z,19.27
2022-11-14T18:42:49.683Z,23.30
2022-11-14T18:45:34.898Z,17.97
2022-11-14T18:48:19.791Z,18.40
2022-11-14T18:51:06.536Z,21.97
2022-11-14T18:53:51.785Z,18.70
2022-11-14T18:56:36.672Z,22.37
2022-11-14T18:59:21.390Z,21.93
2022-11-14T19:02:06.510Z,19.57
2022-11-14T19:04:51.643Z,19.93
2022-11-14T19:07:36.686Z,22.03
2022-11-14T19:10:22.018Z,21.00
2022-11-14T19:13:06.802Z,19.93
2022-11-14T19:15:51.743Z,19.10
2022-11-14T19:18:36.603Z,21.23
2022-11-14T19:21:21.513Z,22.70
2022-11-14T19:24:06.737Z,19.43
2022-11-14T19:26:51.671Z,21.03
2022-11-14T19:29:36.573Z,20.67
2022-11-14T19:32:21.681Z,19.17
2022-11-14T19:35:06.819Z,25.33
2022-11-14T19:37:51.838Z,22.07
2022-11-14T19:40:37.262Z,20.23
2022-11-14T19:43:22.675Z,21.00
2022-11-14T19:46:07.455Z,22.50
2022-11-14T19:48:56.261Z,25.33
2022-11-14T19:51:41.045Z,25.47
2022-11-14T19:54:25.944Z,25.47
2022-11-14T19:57:10.902Z,27.17
2022-11-14T19:59:55.832Z,24.93
2022-11-14T20:02:40.921Z,27.87
2022-11-14T20:05:26.139Z,24.63
2022-11-14T20:08:10.973Z,28.00
2022-11-14T20:10:55.798Z,29.33
2022-11-14T20:13:42.424Z,29.60
2022-11-14T20:16:28.330Z,27.43
2022-11-14T20:19:14.136Z,28.07
2022-11-14T20:21:59.133Z,28.40
2022-11-14T20:24:44.470Z,30.97
2022-11-14T20:27:29.592Z,25.57
2022-11-14T20:30:15.015Z,25.73
2022-11-14T20:33:00.419Z,26.90
2022-11-14T20:35:45.680Z,25.27
2022-11-14T20:38:31.417Z,27.30
2022-11-14T20:41:17.018Z,26.10
2022-11-14T20:44:03.884Z,24.77
2022-11-14T20:46:49.279Z,27.63
2022-11-14T20:49:34.199Z,29.87
2022-11-14T20:52:19.116Z,28.70
2022-11-14T20:55:11.454Z,27.87
2022-11-14T20:57:56.762Z,28.27
2022-11-14T21:00:42.152Z,27.07
2022-11-14T21:03:27.549Z,27.03
2022-11-14T21:06:13.421Z,26.33
2022-11-14T21:08:58.298Z,29.27
2022-11-14T21:11:43.157Z,29.13
2022-11-14T21:14:27.973Z,29.50
2022-11-14T21:17:12.886Z,28.80
2022-11-14T21:19:58.380Z,27.97
2022-11-14T21:22:44.612Z,31.43
2022-11-14T21:25:29.913Z,32.80
2022-11-14T21:28:14.852Z,27.40
2022-11-14T21:31:00.837Z,30.70
2022-11-14T21:33:47.055Z,32.10
2022-11-14T21:36:47.898Z,33.00
2022-11-14T21:39:32.874Z,33.67
2022-11-14T21:42:18.855Z,32.20
2022-11-14T21:45:04.128Z,31.73
2022-11-14T21:47:49.184Z,31.33
2022-11-14T21:50:34.199Z,30.20
2022-11-14T21:53:18.995Z,30.47
2022-11-14T21:56:07.680Z,33.90
2022-11-14T21:59:12.442Z,34.23
2022-11-14T22:02:16.290Z,30.63
2022-11-14T22:05:01.575Z,28.33
2022-11-14T22:07:46.807Z,30.13
2022-11-14T22:10:31.916Z,28.33
2022-11-14T22:13:17.058Z,29.57
2022-11-14T22:16:05.596Z,29.23
2022-11-14T22:18:54.071Z,28.47
2022-11-14T22:21:38.950Z,28.70
2022-11-14T22:24:23.889Z,28.27
2022-11-14T22:27:08.606Z,28.80
2022-11-14T22:29:53.668Z,26.00
2022-11-14T22:32:38.445Z,28.37
2022-11-14T22:35:26.304Z,30.70
2022-11-14T22:38:11.480Z,24.23
2022-11-14T22:40:57.063Z,25.77
2022-11-14T22:43:42.763Z,29.37
2022-11-14T22:46:27.866Z,28.00
2022-11-14T22:49:17.168Z,28.10
2022-11-14T22:52:04.627Z,26.50
2022-11-14T22:54:49.631Z,28.90
2022-11-14T22:57:34.525Z,29.40
2022-11-14T23:00:19.544Z,26.47
2022-11-14T23:03:04.425Z,27.90
2022-11-14T23:05:49.759Z,29.67
2022-11-14T23:08:34.928Z,32.10
2022-11-14T23:11:21.315Z,27.87
2022-11-14T23:14:06.523Z,28.00
2022-11-14T23:16:51.377Z,29.57
2022-11-14T23:19:36.284Z,27.33
2022-11-14T23:22:21.093Z,27.60
2022-11-14T23:25:06.209Z,30.03
2022-11-14T23:27:51.297Z,35.53
2022-11-14T23:30:36.280Z,32.77
2022-11-14T23:33:21.193Z,33.03
2022-11-14T23:36:06.140Z,29.20
2022-11-14T23:38:54.675Z,30.87
2022-11-14T23:41:39.773Z,32.03
2022-11-14T23:44:24.798Z,33.67
2022-11-14T23:47:09.660Z,32.63
2022-11-14T23:49:54.596Z,32.10
2022-11-14T23:52:39.560Z,30.87
2022-11-14T23:55:24.405Z,36.07
2022-11-14T23:58:09.396Z,34.13
